Time;durP1;ratioP1;P1;durP2;ratioP2;P2;SDS_P1;SDS_P2;PMS_P1;PMS_P2;Temp;Humidity;BMP_temperature;BMP_pressure;BME280_temperature;BME280_humidity;BME280_pressure;Samples;Min_cycle;Max_cycle;Signal;HPM_P1;HPM_P2
2023/06/27 00:02:15;;;;;;;;;;;23.00;49.00;;;23.20;35.29;98985.34;5025981;27;118351;-75
2023/06/27 00:04:44;;;;;;;;;;;23.00;49.10;;;23.21;35.40;98998.22;5025068;28;118956;-75
2023/06/27 00:07:10;;;;;;;;;;;23.00;49.20;;;23.20;35.47;98990.16;5009764;27;123833;-76
2023/06/27 00:09:36;;;;;;;;;;;22.90;49.30;;;23.19;35.22;98995.00;5009693;27;123898;-75
2023/06/27 00:12:03;;;;;;;;;;;22.90;49.30;;;23.19;35.46;98995.00;5024239;27;119831;-75
2023/06/27 00:14:29;;;;;;;;;;;22.90;49.30;;;23.21;34.99;98992.56;5026310;27;118055;-75
2023/06/27 00:16:57;;;;;;;;;;;22.90;49.30;;;23.24;35.42;98991.00;5027273;27;123127;-75
2023/06/27 00:19:23;;;;;;;;;;;22.90;49.30;;;23.25;35.35;98984.16;5024664;27;124092;-76
2023/06/27 00:21:49;;;;;;;;;;;22.90;49.30;;;23.27;35.32;99001.50;5025226;27;118930;-77
2023/06/27 00:24:16;;;;;;;;;;;23.00;49.40;;;23.27;35.42;98991.03;5020057;28;118722;-77
2023/06/27 00:26:42;;;;;;;;;;;22.90;49.30;;;23.29;35.18;98985.81;5022290;27;124629;-75
2023/06/27 00:29:08;;;;;;;;;;;23.00;49.40;;;23.29;35.20;98997.09;5026770;27;123937;-76
2023/06/27 00:31:34;;;;;;;;;;;23.00;49.40;;;23.28;35.54;99003.91;5027310;27;120368;-77
2023/06/27 00:34:01;;;;;;;;;;;23.00;49.40;;;23.25;35.42;98999.06;5028535;27;119637;-77
2023/06/27 00:36:27;;;;;;;;;;;23.00;49.40;;;23.20;35.49;99007.88;5027465;27;124597;-77
2023/06/27 00:38:53;;;;;;;;;;;22.90;49.30;;;23.17;35.77;99003.03;5025863;27;124306;-76
2023/06/27 00:41:20;;;;;;;;;;;22.90;49.60;;;23.14;35.67;99004.63;5024164;27;119396;-77
2023/06/27 00:43:46;;;;;;;;;;;22.90;49.60;;;23.13;35.46;99005.84;5028102;27;119312;-77
2023/06/27 00:46:28;;;;;;;;;;;22.90;49.60;;;23.09;35.64;99004.19;5028253;27;124362;-77
2023/06/27 00:48:57;;;;;;;;;;;22.90;49.80;;;23.04;35.66;98998.91;5020695;27;123931;-77
2023/06/27 00:51:24;;;;;;;;;;;22.80;49.80;;;23.02;36.04;98998.50;5023246;27;118486;-78
2023/06/27 00:53:50;;;;;;;;;;;22.80;49.90;;;23.00;35.96;99001.72;5029331;28;118588;-78
2023/06/27 00:56:16;;;;;;;;;;;22.80;50.00;;;22.99;36.17;99007.72;5030939;28;124458;-77
2023/06/27 00:58:48;;;;;;;;;;;22.70;49.90;;;22.97;35.97;99010.13;5026950;27;123842;-78
2023/06/27 01:01:14;;;;;;;;;;;22.70;50.00;;;22.92;36.00;99012.09;5036165;27;119564;-78
2023/06/27 01:03:40;;;;;;;;;;;22.70;50.10;;;22.87;36.33;99006.81;5024514;27;119249;-78
2023/06/27 01:06:16;;;;;;;;;;;22.70;50.20;;;22.85;36.42;99003.56;5024266;27;124532;-78
2023/06/27 01:08:47;;;;;;;;;;;22.60;50.20;;;22.82;36.11;99021.25;5026084;27;122904;-78
2023/06/27 01:11:18;;;;;;;;;;;22.60;50.30;;;22.79;36.28;99010.78;5037788;27;119303;-78
2023/06/27 01:13:49;;;;;;;;;;;22.60;50.40;;;22.76;36.29;99007.94;5022794;27;116700;-79
2023/06/27 01:16:19;;;;;;;;;;;22.50;50.60;;;22.73;36.71;99020.78;5032062;27;124266;-77
2023/06/27 01:18:48;;;;;;;;;;;22.50;50.50;;;22.73;36.38;99015.16;5034638;27;123991;-77
2023/06/27 01:21:16;;;;;;;;;;;22.50;50.50;;;22.74;36.34;99016.75;5037923;27;120436;-78
2023/06/27 01:23:53;;;;;;;;;;;22.50;50.60;;;22.70;36.34;99019.56;5035214;27;119818;-77
2023/06/27 01:26:22;;;;;;;;;;;22.40;50.50;;;22.69;36.46;99020.75;5009737;28;123202;-77
2023/06/27 01:28:48;;;;;;;;;;;22.40;50.60;;;22.67;36.67;99025.13;5028928;27;123697;-78
2023/06/27 01:31:26;;;;;;;;;;;22.40;50.70;;;22.67;36.51;99014.69;5022489;27;119493;-78
2023/06/27 01:34:05;;;;;;;;;;;22.40;50.70;;;22.66;36.79;99024.34;5009415;28;117918;-77
2023/06/27 01:36:35;;;;;;;;;;;22.40;51.10;;;22.64;36.75;99025.94;5013700;27;124176;-77
2023/06/27 01:39:06;;;;;;;;;;;22.40;51.00;;;22.60;36.88;99019.47;5010355;27;123232;-77
2023/06/27 01:41:38;;;;;;;;;;;22.40;51.00;;;22.59;36.88;99021.44;5021516;27;119369;-76
2023/06/27 01:44:09;;;;;;;;;;;22.30;51.00;;;22.55;37.08;99015.00;5034501;27;118682;-75
2023/06/27 01:46:35;;;;;;;;;;;22.30;51.20;;;22.52;37.32;99010.13;5017656;28;123901;-77
2023/06/27 01:49:05;;;;;;;;;;;22.30;51.40;;;22.49;37.25;99020.16;5024285;27;123962;-76
2023/06/27 01:51:32;;;;;;;;;;;22.20;51.30;;;22.46;37.16;99020.94;5024812;28;120601;-76
2023/06/27 01:53:59;;;;;;;;;;;22.20;51.40;;;22.42;37.25;99017.25;5018098;27;118762;-75
2023/06/27 01:56:32;;;;;;;;;;;22.20;51.50;;;22.40;37.26;99014.03;5010458;27;124543;-75
2023/06/27 01:58:58;;;;;;;;;;;22.10;51.40;;;22.42;37.29;99014.44;5021836;27;123819;-76
2023/06/27 02:01:28;;;;;;;;;;;22.20;51.70;;;22.40;37.60;99016.84;5019392;27;119507;-77
2023/06/27 02:03:54;;;;;;;;;;;22.10;51.70;;;22.35;37.65;99014.38;5026756;27;118862;-77
2023/06/27 02:06:20;;;;;;;;;;;22.10;51.60;;;22.32;37.47;99009.50;5028294;27;124665;-77
2023/06/27 02:08:47;;;;;;;;;;;22.10;51.70;;;22.33;37.70;99011.16;5027104;28;126093;-76
2023/06/27 02:11:13;;;;;;;;;;;22.10;51.80;;;22.32;37.59;99015.16;5025385;27;119489;-77
2023/06/27 02:13:39;;;;;;;;;;;22.10;51.80;;;22.32;37.71;99015.16;5026083;27;119651;-77
2023/06/27 02:16:06;;;;;;;;;;;22.00;51.70;;;22.31;37.57;99013.53;5025272;27;124140;-75
2023/06/27 02:18:32;;;;;;;;;;;22.00;51.80;;;22.27;37.72;99018.31;5026310;27;124084;-75
2023/06/27 02:21:01;;;;;;;;;;;22.00;52.50;;;22.23;37.86;99012.66;5023669;27;119847;-75
2023/06/27 02:23:27;;;;;;;;;;;22.00;52.00;;;22.18;37.50;99012.16;5016726;28;118285;-75
2023/06/27 02:25:55;;;;;;;;;;;21.90;51.90;;;22.14;37.93;99008.47;5024835;28;124409;-74
2023/06/27 02:28:22;;;;;;;;;;;21.90;52.00;;;22.10;38.12;99013.28;5025542;28;124521;-77
2023/06/27 02:30:51;;;;;;;;;;;21.90;52.00;;;22.06;37.85;99005.59;5025779;27;118633;-75
2023/06/27 02:33:17;;;;;;;;;;;21.80;52.10;;;22.02;37.97;99001.94;5030106;27;118216;-75
2023/06/27 02:35:43;;;;;;;;;;;21.80;52.10;;;22.02;37.87;99013.19;5019487;27;124308;-75
2023/06/27 02:38:12;;;;;;;;;;;21.80;52.20;;;22.01;38.09;99005.13;5026485;27;123820;-75
2023/06/27 02:40:39;;;;;;;;;;;21.80;52.20;;;22.00;38.08;98998.72;5019594;27;119188;-75
2023/06/27 02:43:08;;;;;;;;;;;21.70;52.50;;;21.98;38.13;99003.91;5025994;28;118931;-75
2023/06/27 02:45:35;;;;;;;;;;;21.70;52.40;;;21.98;38.05;99000.28;5027492;27;123953;-74
2023/06/27 02:48:01;;;;;;;;;;;21.80;52.50;;;21.98;37.92;99006.72;5023508;27;124057;-75
2023/06/27 02:50:28;;;;;;;;;;;21.70;52.40;;;21.97;38.41;98999.44;5025741;27;119447;-75
2023/06/27 02:52:54;;;;;;;;;;;21.70;52.50;;;21.97;38.31;99010.69;5028273;27;117852;-75
2023/06/27 02:55:22;;;;;;;;;;;21.70;52.50;;;21.96;38.20;99005.47;5024884;27;124291;-77
2023/06/27 02:57:49;;;;;;;;;;;21.70;52.50;;;21.95;38.26;99003.84;5024948;27;123780;-74
2023/06/27 03:00:15;;;;;;;;;;;21.70;52.50;;;21.96;38.02;99011.91;5025462;27;120814;-75
2023/06/27 03:02:44;;;;;;;;;;;21.70;52.50;;;21.94;38.42;99008.66;5025161;27;119269;-74
2023/06/27 03:05:10;;;;;;;;;;;21.70;52.50;;;21.93;38.07;99003.44;5019973;27;123682;-75
2023/06/27 03:07:36;;;;;;;;;;;21.70;52.60;;;21.87;38.52;99002.97;5021980;27;123936;-75
2023/06/27 03:10:06;;;;;;;;;;;21.60;52.60;;;21.85;38.40;99016.59;5021509;27;119387;-75
2023/06/27 03:12:32;;;;;;;;;;;21.60;52.70;;;21.84;38.58;99012.16;5018050;27;118878;-75
2023/06/27 03:14:58;;;;;;;;;;;21.60;52.80;;;21.81;38.49;99012.91;5014837;27;124682;-76
2023/06/27 03:17:25;;;;;;;;;;;21.60;52.90;;;21.77;38.73;99017.72;5024586;27;124154;-75
2023/06/27 03:19:51;;;;;;;;;;;21.60;52.90;;;21.75;38.39;99012.44;5038769;27;119534;-74
2023/06/27 03:22:19;;;;;;;;;;;21.50;52.90;;;21.73;38.46;99016.84;5032728;27;118646;-74
2023/06/27 03:24:47;;;;;;;;;;;21.50;53.10;;;21.69;38.50;99007.56;5026625;27;124260;-76
2023/06/27 03:27:16;;;;;;;;;;;21.50;53.10;;;21.67;38.69;99013.56;5025558;27;123982;-77
2023/06/27 03:29:43;;;;;;;;;;;21.50;53.10;;;21.66;38.80;99008.34;5025425;27;119326;-78
2023/06/27 03:32:10;;;;;;;;;;;21.40;53.10;;;21.63;38.96;99007.09;5025645;27;118781;-76
2023/06/27 03:34:37;;;;;;;;;;;21.40;53.00;;;21.61;38.96;99003.84;5024661;27;124815;-77
2023/06/27 03:37:04;;;;;;;;;;;21.40;53.00;;;21.58;38.65;99010.22;5024074;27;125160;-77
2023/06/27 03:39:30;;;;;;;;;;;21.40;53.10;;;21.54;38.91;99014.97;5027380;27;119713;-77
2023/06/27 03:41:59;;;;;;;;;;;21.40;53.20;;;21.49;39.18;99013.31;5036186;27;118661;-77
2023/06/27 03:44:25;;;;;;;;;;;21.30;53.30;;;21.45;39.34;99014.47;5045211;27;124241;-77
2023/06/27 03:46:51;;;;;;;;;;;21.40;53.40;;;21.43;38.90;99014.03;5035654;27;124704;-77
2023/06/27 03:49:18;;;;;;;;;;;21.20;53.40;;;21.39;39.05;99016.81;5031701;27;120450;-77
2023/06/27 03:51:44;;;;;;;;;;;21.20;53.50;;;21.37;39.43;99013.53;5034116;27;118754;-77
2023/06/27 03:54:10;;;;;;;;;;;21.20;53.60;;;21.35;39.29;99038.38;5025441;27;124993;-77
2023/06/27 03:56:36;;;;;;;;;;;21.10;53.60;;;21.31;39.36;99023.47;5009075;27;123862;-77
2023/06/27 03:59:05;;;;;;;;;;;21.10;53.70;;;21.26;39.33;99023.81;5022316;27;119313;-77
2023/06/27 04:01:32;;;;;;;;;;;21.00;53.60;;;21.24;39.16;99015.75;5024211;27;118166;-76
2023/06/27 04:03:58;;;;;;;;;;;21.00;53.60;;;21.22;39.19;99017.31;5022741;27;124794;-74
2023/06/27 04:06:24;;;;;;;;;;;21.00;53.70;;;21.22;39.60;99020.13;5006818;27;123882;-75
2023/06/27 04:08:50;;;;;;;;;;;21.00;53.70;;;21.21;39.57;99024.13;5014718;27;119141;-75
2023/06/27 04:11:17;;;;;;;;;;;21.00;53.80;;;21.20;39.27;99023.31;5003894;28;119174;-74
2023/06/27 04:13:43;;;;;;;;;;;21.00;53.80;;;21.17;39.24;99030.50;5016127;27;124807;-77
2023/06/27 04:16:09;;;;;;;;;;;21.00;53.80;;;21.18;39.68;99036.94;5023164;27;124418;-77
2023/06/27 04:18:38;;;;;;;;;;;21.00;53.80;;;21.19;39.34;99036.53;5024503;27;119971;-77
2023/06/27 04:21:04;;;;;;;;;;;21.00;53.80;;;21.22;39.56;99026.53;5023240;27;118770;-77
2023/06/27 04:23:30;;;;;;;;;;;21.00;53.90;;;21.21;39.09;99021.31;5026160;27;124791;-77
2023/06/27 04:26:04;;;;;;;;;;;21.00;53.80;;;21.22;39.75;99025.72;5034187;27;124223;-78
2023/06/27 04:28:31;;;;;;;;;;;21.00;53.90;;;21.23;39.33;99036.63;5005626;28;118759;-76
2023/06/27 04:30:58;;;;;;;;;;;21.00;53.90;;;21.23;39.14;99028.19;5024542;27;118953;-77
2023/06/27 04:33:24;;;;;;;;;;;21.00;53.80;;;21.25;39.30;99030.59;5024489;27;124292;-74
2023/06/27 04:35:51;;;;;;;;;;;21.00;54.00;;;21.26;39.21;99032.22;5010525;27;124445;-75
2023/06/27 04:38:18;;;;;;;;;;;21.00;53.90;;;21.26;39.39;99035.03;5017308;27;120779;-74
2023/06/27 04:40:46;;;;;;;;;;;21.00;53.90;;;21.25;39.29;99039.03;5009876;27;119768;-75
2023/06/27 04:43:14;;;;;;;;;;;21.00;54.10;;;21.23;39.39;99039.41;5010988;27;124081;-76
2023/06/27 04:45:40;;;;;;;;;;;21.00;54.00;;;21.25;39.60;99041.84;5003582;28;123973;-79
2023/06/27 04:48:09;;;;;;;;;;;21.00;54.00;;;21.26;39.45;99043.47;5014739;27;120070;-76
2023/06/27 04:50:35;;;;;;;;;;;21.00;54.30;;;21.27;39.62;99043.06;5019099;28;118761;-76
2023/06/27 04:53:03;;;;;;;;;;;21.00;54.20;;;21.26;39.68;99041.47;5023135;27;124623;-77
2023/06/27 04:55:34;;;;;;;;;;;21.00;54.10;;;21.25;39.39;99047.47;5022187;28;124840;-76
2023/06/27 04:58:00;;;;;;;;;;;21.00;54.10;;;21.24;39.43;99045.84;5023484;27;119771;-78
2023/06/27 05:00:27;;;;;;;;;;;20.90;54.10;;;21.26;39.29;99057.53;5023922;27;118754;-77
2023/06/27 05:02:53;;;;;;;;;;;21.00;54.20;;;21.26;39.43;99060.34;5015834;27;124540;-76
2023/06/27 05:05:19;;;;;;;;;;;21.00;54.20;;;21.29;39.22;99062.38;5007557;27;124306;-76
2023/06/27 05:07:48;;;;;;;;;;;21.00;54.20;;;21.32;39.71;99061.63;5021435;27;119389;-76
2023/06/27 05:10:14;;;;;;;;;;;21.00;54.40;;;21.32;39.43;99053.19;5026373;27;118879;-75
2023/06/27 05:12:40;;;;;;;;;;;21.00;54.30;;;21.32;39.82;99056.00;5026985;27;124604;-75
2023/06/27 05:15:13;;;;;;;;;;;21.00;54.40;;;21.35;39.54;99067.28;5017093;27;124281;-74
2023/06/27 05:17:51;;;;;;;;;;;21.00;54.40;;;21.37;39.39;99059.34;5024112;27;119557;-75
2023/06/27 05:20:20;;;;;;;;;;;21.00;54.40;;;21.39;39.74;99056.16;5029721;27;118371;-77
2023/06/27 05:22:46;;;;;;;;;;;21.00;54.60;;;21.41;39.80;99053.75;5024576;27;124399;-76
2023/06/27 05:25:13;;;;;;;;;;;21.10;54.60;;;21.41;39.44;99059.38;5026000;27;123653;-76
2023/06/27 05:27:39;;;;;;;;;;;21.10;54.60;;;21.41;39.50;99062.19;5027914;27;121114;-75
2023/06/27 05:30:06;;;;;;;;;;;21.10;54.50;;;21.41;39.45;99048.13;5022739;28;119756;-75
2023/06/27 05:32:32;;;;;;;;;;;21.00;54.40;;;21.41;39.71;99045.31;5018986;27;124682;-76
2023/06/27 05:34:58;;;;;;;;;;;21.10;54.60;;;21.42;39.84;99051.78;5017284;27;124556;-76
2023/06/27 05:37:24;;;;;;;;;;;21.10;54.60;;;21.45;39.58;99049.00;5017383;27;119385;-76
2023/06/27 05:39:51;;;;;;;;;;;21.10;54.70;;;21.48;39.66;99053.06;5022840;27;118643;-76
2023/06/27 05:42:17;;;;;;;;;;;21.10;55.30;;;21.53;39.48;99063.97;5019249;27;124122;-76
2023/06/27 05:44:43;;;;;;;;;;;21.10;54.80;;;21.56;39.84;99064.03;5010494;27;123779;-76
2023/06/27 05:47:09;;;;;;;;;;;21.20;54.80;;;21.60;39.53;99062.09;5021024;27;119476;-75
2023/06/27 05:49:36;;;;;;;;;;;21.20;54.70;;;21.61;39.54;99063.69;5005312;27;119198;-76
2023/06/27 05:52:05;;;;;;;;;;;21.20;54.60;;;21.62;39.31;99070.94;5023816;27;124120;-75
2023/06/27 05:54:31;;;;;;;;;;;21.30;54.60;;;21.64;39.61;99070.56;5040089;27;123741;-76
2023/06/27 05:56:59;;;;;;;;;;;21.30;54.60;;;21.66;39.22;99065.38;5025110;27;119700;-76
2023/06/27 05:59:25;;;;;;;;;;;21.30;54.60;;;21.68;39.64;99070.59;5017848;27;118651;-83
2023/06/27 06:01:52;;;;;;;;;;;21.30;54.60;;;21.73;39.26;99075.91;5022021;27;124318;-83
2023/06/27 06:04:19;;;;;;;;;;;21.30;54.80;;;21.76;39.29;99073.16;5021663;27;124180;-82
2023/06/27 06:06:46;;;;;;;;;;;21.40;54.80;;;21.80;39.45;99070.38;5026504;27;119580;-83
2023/06/27 06:09:12;;;;;;;;;;;21.40;54.70;;;21.84;38.99;99069.25;5032892;27;118806;-83
2023/06/27 06:11:39;;;;;;;;;;;21.40;54.60;;;21.89;39.21;99058.84;5029733;27;124204;-83
2023/06/27 06:14:08;;;;;;;;;;;21.50;54.70;;;21.92;39.13;99053.25;5026834;27;123028;-84
2023/06/27 06:16:34;;;;;;;;;;;21.50;54.40;;;21.97;38.72;99061.34;5036444;27;120141;-84
2023/06/27 06:19:01;;;;;;;;;;;21.50;54.50;;;22.04;38.80;99075.53;5021614;27;119647;-82
2023/06/27 06:21:27;;;;;;;;;;;21.60;54.60;;;22.13;38.59;99069.59;5020100;27;124398;-82
2023/06/27 06:23:56;;;;;;;;;;;21.60;54.60;;;22.22;38.98;99056.06;5022636;27;124166;-84
2023/06/27 06:26:23;;;;;;;;;;;21.70;54.70;;;22.33;38.12;99056.19;5026339;27;119411;-83
2023/06/27 06:28:49;;;;;;;;;;;21.80;54.40;;;22.41;37.79;99052.25;5026410;27;118998;-80
2023/06/27 06:31:16;;;;;;;;;;;21.90;53.80;;;22.48;37.77;99057.94;5011066;27;124637;-82
2023/06/27 06:33:45;;;;;;;;;;;21.90;53.40;;;22.58;37.49;99067.72;5023978;27;123899;-83
2023/06/27 06:36:12;;;;;;;;;;;22.00;53.20;;;22.66;37.34;99071.41;5025688;27;119519;-85
2023/06/27 06:38:39;;;;;;;;;;;22.00;53.00;;;22.74;37.26;99064.66;5025382;27;118756;-83
2023/06/27 06:41:06;;;;;;;;;;;22.10;52.90;;;22.84;36.96;99068.78;5011920;27;124339;-82
2023/06/27 06:43:32;;;;;;;;;;;22.20;52.50;;;22.94;36.72;99065.22;5017181;27;123780;-83
2023/06/27 06:46:01;;;;;;;;;;;22.30;52.60;;;23.04;36.11;99067.38;5012711;27;119123;-81
2023/06/27 06:48:27;;;;;;;;;;;22.40;52.00;;;23.12;35.94;99071.84;5012906;27;119494;-82
2023/06/27 06:50:53;;;;;;;;;;;22.40;51.50;;;23.17;35.87;99069.88;5030948;27;123973;-82
2023/06/27 06:53:20;;;;;;;;;;;22.50;51.80;;;23.26;35.30;99071.16;5035026;27;124467;-82
2023/06/27 06:55:48;;;;;;;;;;;22.60;51.00;;;23.35;34.89;99068.81;5022173;27;120473;-83
2023/06/27 06:58:19;;;;;;;;;;;22.70;50.70;;;23.41;35.42;99069.25;5023811;27;118816;-82
2023/06/27 07:00:45;;;;;;;;;;;22.70;50.90;;;23.45;35.12;99069.28;5022890;27;125569;-83
2023/06/27 07:03:14;;;;;;;;;;;22.80;50.60;;;23.48;34.87;99071.31;5031295;27;124033;-81
2023/06/27 07:05:41;;;;;;;;;;;22.80;50.50;;;23.50;34.99;99069.72;5023718;27;121307;-82
2023/06/27 07:08:08;;;;;;;;;;;22.90;50.40;;;23.56;35.02;99067.31;5038126;27;120280;-83
2023/06/27 07:10:34;;;;;;;;;;;23.00;50.60;;;23.60;35.13;99060.50;5023925;27;124631;-83
2023/06/27 07:13:01;;;;;;;;;;;23.00;50.60;;;23.68;34.99;99067.00;5024781;27;123845;-83
2023/06/27 07:15:29;;;;;;;;;;;23.10;50.50;;;23.74;35.11;99068.28;5026869;28;119168;-82
2023/06/27 07:17:56;;;;;;;;;;;23.20;50.60;;;23.83;35.13;99069.94;5024633;27;119931;-82
2023/06/27 07:20:22;;;;;;;;;;;23.30;50.60;;;23.88;34.80;99066.72;5012644;27;124229;-82
2023/06/27 07:22:49;;;;;;;;;;;23.30;50.30;;;23.95;34.41;99061.13;5009401;27;122738;-81
2023/06/27 07:25:18;;;;;;;;;;;23.40;50.10;;;24.01;34.22;99051.06;5026020;27;119379;-82
2023/06/27 07:27:45;;;;;;;;;;;23.50;49.80;;;24.01;34.30;99056.72;5022039;27;118918;-83
2023/06/27 07:30:12;;;;;;;;;;;23.50;49.40;;;23.98;34.09;99063.16;5019503;27;125081;-82
2023/06/27 07:32:39;;;;;;;;;;;23.50;49.30;;;24.04;34.05;99050.28;5027623;27;122776;-81
2023/06/27 07:35:05;;;;;;;;;;;23.60;49.60;;;24.08;34.05;99053.13;5012297;27;119327;-83
2023/06/27 07:37:32;;;;;;;;;;;23.50;49.20;;;24.08;34.23;99065.22;5001972;27;117736;-81
2023/06/27 07:39:58;;;;;;;;;;;23.60;49.60;;;24.12;34.30;99057.56;5019709;27;124238;-80
2023/06/27 07:42:27;;;;;;;;;;;23.60;49.60;;;24.21;34.18;99060.84;5017946;27;124420;-81
2023/06/27 07:44:53;;;;;;;;;;;23.70;49.60;;;24.30;33.75;99056.84;5023852;27;119143;-80
2023/06/27 07:47:20;;;;;;;;;;;23.70;49.10;;;24.34;32.85;99058.47;5027398;27;118827;-80
2023/06/27 07:49:46;;;;;;;;;;;23.70;48.20;;;24.34;33.43;99052.00;5023046;27;124281;-81
2023/06/27 07:52:12;;;;;;;;;;;23.70;48.50;;;24.44;33.82;99065.38;5026227;27;123351;-81
2023/06/27 07:54:39;;;;;;;;;;;23.80;49.10;;;24.58;33.45;99058.94;5014359;27;120334;-81
2023/06/27 07:57:06;;;;;;;;;;;24.00;48.90;;;24.61;32.79;99063.78;5007226;28;119644;-81
2023/06/27 07:59:32;;;;;;;;;;;24.00;48.30;;;24.56;32.65;99076.31;5020953;27;124241;-81
2023/06/27 08:01:58;;;;;;;;;;;24.00;48.10;;;24.54;32.87;99077.91;5019298;27;124546;-82
2023/06/27 08:04:25;;;;;;;;;;;24.10;48.10;;;24.49;32.67;99067.00;5022910;27;119437;-82
2023/06/27 08:06:52;;;;;;;;;;;24.10;47.80;;;24.44;33.04;99073.84;5022757;27;119019;-83
2023/06/27 08:09:20;;;;;;;;;;;24.10;47.70;;;24.38;32.77;99072.59;5005430;28;123368;-82
2023/06/27 08:11:46;;;;;;;;;;;24.10;47.60;;;24.31;32.96;99064.88;5019463;27;123726;-82
2023/06/27 08:14:12;;;;;;;;;;;24.00;47.60;;;24.27;33.08;99058.44;5015121;27;119572;-81
2023/06/27 08:16:39;;;;;;;;;;;24.00;47.60;;;24.24;33.26;99054.38;5031779;27;117181;-81
2023/06/27 08:19:07;;;;;;;;;;;23.90;47.70;;;24.24;32.96;99053.59;5012743;27;122584;-81
2023/06/27 08:21:37;;;;;;;;;;;24.00;47.80;;;24.19;32.83;99057.59;5042388;27;123959;-84
2023/06/27 08:24:03;;;;;;;;;;;23.90;47.60;;;24.16;33.07;99047.09;5040188;27;120013;-83
2023/06/27 08:26:30;;;;;;;;;;;23.90;47.60;;;24.18;33.23;99043.88;5024804;27;118713;-81
2023/06/27 08:28:56;;;;;;;;;;;23.90;47.90;;;24.25;33.41;99044.69;5016022;27;124075;-82
2023/06/27 08:31:22;;;;;;;;;;;23.90;48.10;;;24.31;33.30;99038.66;5021558;27;124080;-82
2023/06/27 08:33:51;;;;;;;;;;;24.00;48.10;;;24.33;33.44;99036.25;5023302;27;118856;-83
2023/06/27 08:36:17;;;;;;;;;;;24.00;48.10;;;24.35;33.35;99031.03;5022936;27;119025;-82
2023/06/27 08:38:46;;;;;;;;;;;24.00;48.30;;;24.41;33.55;99030.22;5008424;28;124011;-84
2023/06/27 08:41:13;;;;;;;;;;;24.00;48.30;;;24.49;33.32;99024.63;5025931;27;123483;-83
2023/06/27 08:43:42;;;;;;;;;;;22.90;47.20;;;24.51;33.62;99025.84;5024024;27;120392;-82
2023/06/27 08:46:11;;;;;;;;;;;24.10;48.30;;;24.57;33.25;99012.94;5023605;27;120009;-84
2023/06/27 08:48:40;;;;;;;;;;;24.10;48.40;;;24.63;33.04;99011.31;5020963;27;124298;-83
2023/06/27 08:51:07;;;;;;;;;;;24.10;48.10;;;24.62;32.87;99011.72;5019262;27;123956;-82
2023/06/27 08:53:36;;;;;;;;;;;24.10;47.80;;;24.61;33.18;99015.75;5013354;27;118595;-82
2023/06/27 08:56:14;;;;;;;;;;;24.20;48.00;;;24.60;32.76;99017.78;5023853;27;119006;-83
2023/06/27 08:58:50;;;;;;;;;;;24.20;47.80;;;24.56;32.64;99022.63;5019862;27;124357;-83
2023/06/27 09:01:17;;;;;;;;;;;24.20;47.40;;;24.49;32.97;99024.63;5028205;27;124355;-83
2023/06/27 09:03:43;;;;;;;;;;;24.20;47.40;;;24.48;32.86;99023.03;5025376;27;118532;-83
2023/06/27 09:06:11;;;;;;;;;;;24.10;47.40;;;24.49;32.68;99016.97;5026327;27;119037;-85
2023/06/27 09:08:38;;;;;;;;;;;24.10;47.30;;;24.54;32.91;99016.56;5010998;27;124291;-82
2023/06/27 09:11:08;;;;;;;;;;;24.20;47.50;;;24.58;32.67;99006.09;5016783;27;123630;-83
2023/06/27 09:13:36;;;;;;;;;;;24.20;47.50;;;24.62;32.50;99011.72;5011337;28;118691;-76
2023/06/27 09:16:04;;;;;;;;;;;24.20;47.30;;;24.65;32.54;99008.91;5021702;27;118912;-75
2023/06/27 09:18:30;;;;;;;;;;;24.20;47.40;;;24.76;32.65;99002.47;5018649;27;124357;-76
2023/06/27 09:21:00;;;;;;;;;;;24.30;47.70;;;24.83;32.43;98999.63;5025279;27;123425;-75
2023/06/27 09:23:29;;;;;;;;;;;24.30;47.60;;;24.81;32.58;98999.22;5020480;27;119647;-76
2023/06/27 09:26:12;;;;;;;;;;;24.30;47.50;;;24.79;32.71;98998.81;5020812;27;118674;-76
2023/06/27 09:28:48;;;;;;;;;;;24.30;47.50;;;24.79;32.60;98996.78;5022706;27;124226;-77
2023/06/27 09:31:17;;;;;;;;;;;24.40;47.60;;;24.79;32.34;98999.63;5021072;27;124642;-76
2023/06/27 09:33:48;;;;;;;;;;;24.40;47.40;;;24.77;32.63;98998.41;5020203;27;121233;-76
2023/06/27 09:36:33;;;;;;;;;;;24.40;47.30;;;24.66;32.69;99006.88;5020454;27;119729;-76
2023/06/27 09:39:03;;;;;;;;;;;24.30;47.30;;;24.54;32.99;99007.28;5019321;27;124600;-76
2023/06/27 09:41:41;;;;;;;;;;;24.20;47.40;;;24.52;32.91;99002.03;5025304;27;124349;-76
2023/06/27 09:44:17;;;;;;;;;;;24.20;47.50;;;24.55;32.92;99006.88;5018871;27;119352;-76
2023/06/27 09:46:46;;;;;;;;;;;24.20;47.60;;;24.60;32.65;99000.81;5022355;27;118191;-76
2023/06/27 09:49:12;;;;;;;;;;;24.20;47.60;;;24.67;32.57;99000.84;5021593;27;124162;-75
2023/06/27 09:51:39;;;;;;;;;;;24.30;47.30;;;24.68;32.59;98993.97;5023826;27;123157;-76
2023/06/27 09:54:05;;;;;;;;;;;24.30;47.30;;;24.69;32.37;98991.97;5022633;27;120362;-78
2023/06/27 09:56:33;;;;;;;;;;;24.30;47.20;;;24.73;32.30;98997.63;5024855;27;118853;-77
2023/06/27 09:59:10;;;;;;;;;;;24.30;47.20;;;24.79;32.35;98998.81;5023749;27;124134;-77
2023/06/27 10:01:37;;;;;;;;;;;24.40;47.30;;;24.86;32.03;98993.19;5023891;27;124298;-76
2023/06/27 10:04:04;;;;;;;;;;;24.40;46.90;;;24.87;31.56;98983.47;5023717;27;119727;-75
2023/06/27 10:06:31;;;;;;;;;;;24.40;46.40;;;24.89;31.72;98986.72;5023055;27;117683;-77
2023/06/27 10:08:58;;;;;;;;;;;24.50;46.40;;;24.91;31.80;99001.25;5008855;27;125007;-77
2023/06/27 10:11:25;;;;;;;;;;;24.50;46.30;;;24.94;31.20;98994.78;5036392;27;123938;-77
2023/06/27 10:13:52;;;;;;;;;;;24.50;46.00;;;24.92;31.53;98983.06;5024003;27;119405;-77
2023/06/27 10:16:18;;;;;;;;;;;25.20;46.40;;;24.96;31.54;99000.00;5021815;27;118804;-77
2023/06/27 10:18:45;;;;;;;;;;;24.60;45.90;;;24.98;31.10;98995.56;5015241;27;123972;-77
2023/06/27 10:21:12;;;;;;;;;;;24.60;45.50;;;24.97;31.43;98991.16;5021758;27;124049;-77
2023/06/27 10:23:42;;;;;;;;;;;24.70;45.50;;;24.96;30.99;98985.88;5022360;27;120956;-77
2023/06/27 10:26:11;;;;;;;;;;;24.60;45.00;;;24.91;31.18;98987.13;4996013;28;117852;-77
2023/06/27 10:28:40;;;;;;;;;;;24.60;45.20;;;24.89;31.16;98992.34;5016900;27;125043;-78
2023/06/27 10:31:06;;;;;;;;;;;24.60;45.20;;;24.89;31.37;98983.88;5020138;27;124392;-76
2023/06/27 10:33:35;;;;;;;;;;;24.60;45.40;;;24.93;31.56;98993.16;5023504;27;120251;-77
2023/06/27 10:36:05;;;;;;;;;;;24.60;45.50;;;25.00;30.77;98986.69;5024975;27;119040;-76
2023/06/27 10:38:38;;;;;;;;;;;24.60;45.70;;;24.97;30.74;98999.63;5014291;27;124394;-77
2023/06/27 10:41:09;;;;;;;;;;;24.60;45.20;;;25.00;30.78;98995.19;5020571;27;123931;-78
2023/06/27 10:43:37;;;;;;;;;;;24.60;45.10;;;25.01;30.78;98989.13;5019318;28;119396;-77
2023/06/27 10:46:13;;;;;;;;;;;24.60;45.30;;;25.03;31.24;98995.16;5032172;27;119193;-78
2023/06/27 10:48:57;;;;;;;;;;;24.70;46.10;;;25.09;30.87;99001.22;5019702;27;124683;-77
2023/06/27 10:51:36;;;;;;;;;;;24.70;45.30;;;25.16;30.59;98994.78;5006312;27;123220;-78
2023/06/27 10:54:11;;;;;;;;;;;24.70;45.00;;;25.22;30.63;98999.63;5022279;27;119678;-77
2023/06/27 10:56:45;;;;;;;;;;;24.80;45.20;;;25.30;30.59;98994.75;5018074;27;119513;-78
2023/06/27 10:59:19;;;;;;;;;;;24.90;45.10;;;25.36;30.65;98987.47;5009524;27;124185;-79
2023/06/27 11:01:53;;;;;;;;;;;24.90;45.00;;;25.41;30.71;98992.72;5014926;27;124060;-77
2023/06/27 11:04:26;;;;;;;;;;;25.00;44.90;;;25.51;30.59;98999.56;5009751;27;119743;-77
2023/06/27 11:07:02;;;;;;;;;;;25.00;44.90;;;25.53;30.92;98988.66;5030740;27;118670;-77
2023/06/27 11:09:29;;;;;;;;;;;25.10;44.90;;;25.54;30.42;98990.25;5026503;27;123431;-79
2023/06/27 11:12:15;;;;;;;;;;;25.20;44.60;;;25.49;30.48;98997.13;5014551;27;124001;-78
2023/06/27 11:14:43;;;;;;;;;;;25.10;44.50;;;25.48;30.67;99004.00;5019939;27;120336;-77